ADDS METAR Data INFO
IDs: Format: Raw Decoded Include TAF

Data at: 1229 UTC 20 Jul 2017

METAR for:PADU (Dutch Harbor/Madsen, AK, US)
Text:PADU 201156Z AUTO VRB04KT 10SM OVC018 09/06 A2998 RMK AO2 SLP154 T00890061 10106 20089 53001
Temperature: 8.9°C ( 48°F)
Dewpoint: 6.1°C ( 43°F) [RH = 83%]
Pressure (altimeter):29.98 inches Hg (1015.3 mb) [Sea level pressure: 1015.4 mb]
Winds:variable direction winds at 5 MPH (4 knots; 2.1 m/s)
Visibility:10 or more sm (16+ km)
Ceiling:1800 feet AGL
Clouds: overcast cloud deck at 1800 feet AGL
QC Flag:automated observation with no human augmentation
Text:PADU 201056Z AUTO 32015KT 10SM BKN018 09/07 A2998 RMK AO2 SLP154 T00940067
Temperature: 9.4°C ( 49°F)
Dewpoint: 6.7°C ( 44°F) [RH = 83%]
Pressure (altimeter):29.98 inches Hg (1015.3 mb) [Sea level pressure: 1015.4 mb]
Winds:from the NW (320 degrees) at 17 MPH (15 knots; 7.7 m/s)
Visibility:10 or more sm (16+ km)
Ceiling:1800 feet AGL
Clouds: broken clouds at 1800 feet AGL
QC Flag:automated observation with no human augmentation
Text:PADU 200956Z AUTO 35008KT 10SM OVC018 09/07 A2998 RMK AO2 SLP152 T00940067
Temperature: 9.4°C ( 49°F)
Dewpoint: 6.7°C ( 44°F) [RH = 83%]
Pressure (altimeter):29.98 inches Hg (1015.3 mb) [Sea level pressure: 1015.2 mb]
Winds:from the N (350 degrees) at 9 MPH (8 knots; 4.1 m/s)
Visibility:10 or more sm (16+ km)
Ceiling:1800 feet AGL
Clouds: overcast cloud deck at 1800 feet AGL
QC Flag:automated observation with no human augmentation
Text:PADU 200856Z AUTO 02005KT 10SM OVC022 09/07 A2998 RMK AO2 SLP153 T00940067 401280094 51007
Temperature: 9.4°C ( 49°F)
Dewpoint: 6.7°C ( 44°F) [RH = 83%]
Pressure (altimeter):29.98 inches Hg (1015.3 mb) [Sea level pressure: 1015.3 mb]
Winds:from the NNE (20 degrees) at 6 MPH (5 knots; 2.6 m/s)
Visibility:10 or more sm (16+ km)
Ceiling:2200 feet AGL
Clouds: overcast cloud deck at 2200 feet AGL
QC Flag:automated observation with no human augmentation
Text:PADU 200756Z AUTO 32010KT 10SM OVC020 10/07 A2997 RMK AO2 SLP151 T01000067
Temperature: 10.0°C ( 50°F)
Dewpoint: 6.7°C ( 44°F) [RH = 80%]
Pressure (altimeter):29.97 inches Hg (1015.0 mb) [Sea level pressure: 1015.1 mb]
Winds:from the NW (320 degrees) at 12 MPH (10 knots; 5.1 m/s)
Visibility:10 or more sm (16+ km)
Ceiling:2000 feet AGL
Clouds: overcast cloud deck at 2000 feet AGL
QC Flag:automated observation with no human augmentation
Text:PADU 200656Z AUTO 33013KT 10SM OVC020 10/07 A2997 RMK AO2 SLP149 T01000072
Temperature: 10.0°C ( 50°F)
Dewpoint: 7.2°C ( 45°F) [RH = 83%]
Pressure (altimeter):29.97 inches Hg (1015.0 mb) [Sea level pressure: 1014.9 mb]
Winds:from the NNW (330 degrees) at 15 MPH (13 knots; 6.7 m/s)
Visibility:10 or more sm (16+ km)
Ceiling:2000 feet AGL
Clouds: overcast cloud deck at 2000 feet AGL
QC Flag:automated observation with no human augmentation
Text:PADU 200646Z AUTO 33012KT 10SM OVC020 10/07 A2997 RMK AO2
Temperature: 10.0°C ( 50°F)
Dewpoint: 7.0°C ( 45°F) [RH = 82%]
Pressure (altimeter):29.97 inches Hg (1015.0 mb)
Winds:from the NNW (330 degrees) at 14 MPH (12 knots; 6.2 m/s)
Visibility:10 or more sm (16+ km)
Ceiling:2000 feet AGL
Clouds: overcast cloud deck at 2000 feet AGL
QC Flag:automated observation with no human augmentation
Text:PADU 200644Z 33013KT 10SM SCT008 OVC020 10/07 A2997 RMK AO2 LAST BP
Temperature: 10.0°C ( 50°F)
Dewpoint: 7.0°C ( 45°F) [RH = 82%]
Pressure (altimeter):29.97 inches Hg (1015.0 mb)
Winds:from the NNW (330 degrees) at 15 MPH (13 knots; 6.7 m/s)
Visibility:10 or more sm (16+ km)
Ceiling:2000 feet AGL
Clouds: scattered clouds at 800 feet AGL, overcast cloud deck at 2000 feet AGL

TAF for:PADU (Dutch Harbor/Madsen, AK, US) issued at 1140 UTC 20 Jul 2017
Text:PADU 201140Z 2012/2112 33010KT P6SM BKN015 OVC025
Forecast period:1200 UTC 20 July 2017 to 1200 UTC 21 July 2017
Forecast type:FROM: standard forecast or significant change
Winds:from the NNW (330 degrees) at 12 MPH (10 knots; 5.1 m/s)
Visibility:6 or more sm (10+ km)
Ceiling:1500 feet AGL
Clouds: broken clouds at 1500 feet AGL, overcast cloud deck at 2500 feet AGL
Text:TEMPO 2012/2016 SCT015 BKN025
Forecast period:1200 to 1600 UTC 20 July 2017
Forecast type:TEMPORARY: The following changes expected for less than half the time period
Ceiling:2500 feet AGL
Clouds: scattered clouds at 1500 feet AGL, broken clouds at 2500 feet AGL